sensor_id;sensor_type;location;lat;lon;timestamp;pressure;altitude;pressure_sealevel;temperature;humidity
13594;BME280;6449;47.666;9.160;2023-11-22T00:01:50;97112.72;;;7.92;100.00
13594;BME280;6449;47.666;9.160;2023-11-22T00:06:43;97119.31;;;7.97;100.00
13594;BME280;6449;47.666;9.160;2023-11-22T00:11:38;97127.25;;;7.96;100.00
13594;BME280;6449;47.666;9.160;2023-11-22T00:16:31;97118.47;;;7.97;100.00
13594;BME280;6449;47.666;9.160;2023-11-22T00:21:27;97118.59;;;7.95;100.00
13594;BME280;6449;47.666;9.160;2023-11-22T00:26:21;97122.88;;;7.96;100.00
13594;BME280;6449;47.666;9.160;2023-11-22T00:31:15;97119.97;;;8.01;100.00
13594;BME280;6449;47.666;9.160;2023-11-22T00:36:08;97115.41;;;8.04;100.00
13594;BME280;6449;47.666;9.160;2023-11-22T00:41:03;97128.94;;;7.97;100.00
13594;BME280;6449;47.666;9.160;2023-11-22T00:45:57;97130.31;;;7.88;100.00
13594;BME280;6449;47.666;9.160;2023-11-22T00:50:50;97127.44;;;7.78;100.00
13594;BME280;6449;47.666;9.160;2023-11-22T00:55:44;97126.34;;;7.68;100.00
13594;BME280;6449;47.666;9.160;2023-11-22T01:00:38;97131.16;;;7.60;100.00
13594;BME280;6449;47.666;9.160;2023-11-22T01:05:32;97145.53;;;7.67;100.00
13594;BME280;6449;47.666;9.160;2023-11-22T01:10:26;97143.84;;;7.80;100.00
13594;BME280;6449;47.666;9.160;2023-11-22T01:15:19;97152.91;;;7.89;100.00
13594;BME280;6449;47.666;9.160;2023-11-22T01:20:14;97152.31;;;7.98;100.00
13594;BME280;6449;47.666;9.160;2023-11-22T01:25:08;97155.59;;;8.02;100.00
13594;BME280;6449;47.666;9.160;2023-11-22T01:30:01;97147.94;;;7.99;100.00
13594;BME280;6449;47.666;9.160;2023-11-22T01:34:57;97147.31;;;7.95;100.00
13594;BME280;6449;47.666;9.160;2023-11-22T01:39:52;97141.41;;;7.92;100.00
13594;BME280;6449;47.666;9.160;2023-11-22T01:44:46;97141.34;;;7.79;100.00
13594;BME280;6449;47.666;9.160;2023-11-22T01:49:40;97150.34;;;7.87;100.00
13594;BME280;6449;47.666;9.160;2023-11-22T01:54:34;97148.41;;;7.91;100.00
13594;BME280;6449;47.666;9.160;2023-11-22T01:59:30;97154.19;;;7.96;100.00
13594;BME280;6449;47.666;9.160;2023-11-22T02:04:24;97157.75;;;7.95;100.00
13594;BME280;6449;47.666;9.160;2023-11-22T02:09:18;97155.75;;;7.99;100.00
13594;BME280;6449;47.666;9.160;2023-11-22T02:14:12;97164.25;;;8.02;100.00
13594;BME280;6449;47.666;9.160;2023-11-22T02:19:14;97158.31;;;8.00;100.00
13594;BME280;6449;47.666;9.160;2023-11-22T02:24:12;97159.81;;;8.04;100.00
13594;BME280;6449;47.666;9.160;2023-11-22T02:29:06;97156.53;;;8.01;100.00
13594;BME280;6449;47.666;9.160;2023-11-22T02:33:59;97168.63;;;7.87;100.00
13594;BME280;6449;47.666;9.160;2023-11-22T02:38:53;97174.78;;;7.86;100.00
13594;BME280;6449;47.666;9.160;2023-11-22T02:43:48;97178.81;;;7.92;100.00
13594;BME280;6449;47.666;9.160;2023-11-22T02:48:41;97175.19;;;7.95;100.00
13594;BME280;6449;47.666;9.160;2023-11-22T02:53:34;97181.88;;;7.99;100.00
13594;BME280;6449;47.666;9.160;2023-11-22T02:58:32;97181.97;;;7.97;100.00
13594;BME280;6449;47.666;9.160;2023-11-22T03:03:27;97182.81;;;7.98;100.00
13594;BME280;6449;47.666;9.160;2023-11-22T03:08:20;97180.78;;;7.88;100.00
13594;BME280;6449;47.666;9.160;2023-11-22T03:13:14;97183.28;;;7.90;100.00
13594;BME280;6449;47.666;9.160;2023-11-22T03:18:07;97182.91;;;7.96;100.00
13594;BME280;6449;47.666;9.160;2023-11-22T03:23:02;97185.91;;;7.90;100.00
13594;BME280;6449;47.666;9.160;2023-11-22T03:27:55;97195.28;;;7.93;100.00
13594;BME280;6449;47.666;9.160;2023-11-22T03:32:49;97196.22;;;7.92;100.00
13594;BME280;6449;47.666;9.160;2023-11-22T03:37:42;97198.47;;;7.98;100.00
13594;BME280;6449;47.666;9.160;2023-11-22T03:42:38;97197.63;;;7.97;100.00
13594;BME280;6449;47.666;9.160;2023-11-22T03:47:32;97209.94;;;7.95;100.00
13594;BME280;6449;47.666;9.160;2023-11-22T03:52:26;97211.91;;;7.92;100.00
13594;BME280;6449;47.666;9.160;2023-11-22T03:57:20;97214.72;;;7.88;100.00
13594;BME280;6449;47.666;9.160;2023-11-22T04:02:14;97229.44;;;7.90;100.00
13594;BME280;6449;47.666;9.160;2023-11-22T04:07:08;97231.84;;;7.93;100.00
13594;BME280;6449;47.666;9.160;2023-11-22T04:12:01;97235.28;;;7.93;100.00
13594;BME280;6449;47.666;9.160;2023-11-22T04:16:56;97240.44;;;7.95;100.00
13594;BME280;6449;47.666;9.160;2023-11-22T04:21:51;97237.47;;;8.01;100.00
13594;BME280;6449;47.666;9.160;2023-11-22T04:26:45;97257.56;;;7.99;100.00
13594;BME280;6449;47.666;9.160;2023-11-22T04:31:40;97254.97;;;7.99;100.00
13594;BME280;6449;47.666;9.160;2023-11-22T04:36:33;97269.91;;;7.97;100.00
13594;BME280;6449;47.666;9.160;2023-11-22T04:41:28;97273.59;;;7.93;100.00
13594;BME280;6449;47.666;9.160;2023-11-22T04:46:21;97268.38;;;7.93;100.00
13594;BME280;6449;47.666;9.160;2023-11-22T04:51:15;97277.25;;;7.90;100.00
13594;BME280;6449;47.666;9.160;2023-11-22T04:56:09;97278.09;;;7.91;100.00
13594;BME280;6449;47.666;9.160;2023-11-22T05:01:04;97283.16;;;7.94;100.00
13594;BME280;6449;47.666;9.160;2023-11-22T05:05:57;97291.50;;;7.84;100.00
13594;BME280;6449;47.666;9.160;2023-11-22T05:10:51;97295.06;;;7.83;100.00
13594;BME280;6449;47.666;9.160;2023-11-22T05:15:46;97304.19;;;7.91;100.00
13594;BME280;6449;47.666;9.160;2023-11-22T05:20:41;97316.22;;;7.93;100.00
13594;BME280;6449;47.666;9.160;2023-11-22T05:25:34;97325.53;;;7.83;100.00
13594;BME280;6449;47.666;9.160;2023-11-22T05:30:28;97336.53;;;7.88;100.00
13594;BME280;6449;47.666;9.160;2023-11-22T05:35:22;97343.28;;;7.76;100.00
13594;BME280;6449;47.666;9.160;2023-11-22T05:40:16;97360.41;;;7.66;100.00
13594;BME280;6449;47.666;9.160;2023-11-22T05:45:10;97370.69;;;7.53;100.00
13594;BME280;6449;47.666;9.160;2023-11-22T05:50:06;97374.25;;;7.37;100.00
13594;BME280;6449;47.666;9.160;2023-11-22T05:55:00;97367.94;;;7.41;100.00
13594;BME280;6449;47.666;9.160;2023-11-22T05:59:57;97374.50;;;7.48;100.00
13594;BME280;6449;47.666;9.160;2023-11-22T06:04:50;97384.94;;;7.32;100.00
13594;BME280;6449;47.666;9.160;2023-11-22T06:09:44;97386.38;;;7.38;100.00
13594;BME280;6449;47.666;9.160;2023-11-22T06:14:37;97388.03;;;7.07;100.00
13594;BME280;6449;47.666;9.160;2023-11-22T06:19:32;97394.44;;;7.17;100.00
13594;BME280;6449;47.666;9.160;2023-11-22T06:24:26;97408.50;;;7.30;100.00
13594;BME280;6449;47.666;9.160;2023-11-22T06:29:19;97417.41;;;7.26;100.00
13594;BME280;6449;47.666;9.160;2023-11-22T06:34:13;97424.91;;;7.32;100.00
13594;BME280;6449;47.666;9.160;2023-11-22T06:39:08;97427.75;;;7.44;100.00
13594;BME280;6449;47.666;9.160;2023-11-22T06:44:02;97447.91;;;7.24;100.00
13594;BME280;6449;47.666;9.160;2023-11-22T06:48:55;97465.00;;;7.14;100.00
13594;BME280;6449;47.666;9.160;2023-11-22T06:53:49;97468.63;;;7.27;100.00
13594;BME280;6449;47.666;9.160;2023-11-22T06:58:45;97482.84;;;7.22;100.00
13594;BME280;6449;47.666;9.160;2023-11-22T07:03:39;97491.09;;;7.14;100.00
13594;BME280;6449;47.666;9.160;2023-11-22T07:08:32;97500.69;;;6.96;100.00
13594;BME280;6449;47.666;9.160;2023-11-22T07:13:26;97505.28;;;7.08;100.00
13594;BME280;6449;47.666;9.160;2023-11-22T07:18:21;97512.56;;;7.02;100.00
13594;BME280;6449;47.666;9.160;2023-11-22T07:23:16;97529.06;;;6.85;100.00
13594;BME280;6449;47.666;9.160;2023-11-22T07:28:15;97544.47;;;6.72;100.00
13594;BME280;6449;47.666;9.160;2023-11-22T07:33:10;97545.00;;;6.96;100.00
13594;BME280;6449;47.666;9.160;2023-11-22T07:38:05;97555.09;;;7.02;100.00
13594;BME280;6449;47.666;9.160;2023-11-22T07:43:00;97561.31;;;7.00;100.00
13594;BME280;6449;47.666;9.160;2023-11-22T07:47:55;97588.59;;;6.58;100.00
13594;BME280;6449;47.666;9.160;2023-11-22T07:52:51;97582.53;;;6.40;100.00
13594;BME280;6449;47.666;9.160;2023-11-22T07:57:48;97592.38;;;6.34;100.00
13594;BME280;6449;47.666;9.160;2023-11-22T08:02:42;97611.00;;;6.43;100.00
13594;BME280;6449;47.666;9.160;2023-11-22T08:07:36;97633.66;;;6.24;100.00
13594;BME280;6449;47.666;9.160;2023-11-22T08:12:32;97627.63;;;6.41;100.00
13594;BME280;6449;47.666;9.160;2023-11-22T08:17:27;97652.22;;;6.35;100.00
13594;BME280;6449;47.666;9.160;2023-11-22T08:22:20;97657.63;;;5.93;100.00
13594;BME280;6449;47.666;9.160;2023-11-22T08:27:14;97661.16;;;6.11;100.00
13594;BME280;6449;47.666;9.160;2023-11-22T08:32:10;97668.41;;;6.04;100.00
13594;BME280;6449;47.666;9.160;2023-11-22T08:37:07;97679.88;;;6.19;100.00
13594;BME280;6449;47.666;9.160;2023-11-22T08:42:00;97696.66;;;5.72;100.00
13594;BME280;6449;47.666;9.160;2023-11-22T08:46:58;97711.34;;;5.94;100.00
13594;BME280;6449;47.666;9.160;2023-11-22T08:51:51;97712.53;;;5.66;100.00
13594;BME280;6449;47.666;9.160;2023-11-22T08:56:46;97704.28;;;6.16;100.00
13594;BME280;6449;47.666;9.160;2023-11-22T09:01:40;97708.72;;;6.33;100.00
13594;BME280;6449;47.666;9.160;2023-11-22T09:06:34;97727.63;;;6.18;100.00
13594;BME280;6449;47.666;9.160;2023-11-22T09:11:27;97737.88;;;6.41;100.00
13594;BME280;6449;47.666;9.160;2023-11-22T09:16:22;97753.81;;;6.34;100.00
13594;BME280;6449;47.666;9.160;2023-11-22T09:21:17;97751.81;;;5.81;100.00
13594;BME280;6449;47.666;9.160;2023-11-22T09:26:10;97754.13;;;5.46;100.00
13594;BME280;6449;47.666;9.160;2023-11-22T09:31:04;97752.16;;;5.93;100.00
13594;BME280;6449;47.666;9.160;2023-11-22T09:36:00;97754.19;;;5.85;100.00
13594;BME280;6449;47.666;9.160;2023-11-22T09:41:00;97752.91;;;5.75;100.00
13594;BME280;6449;47.666;9.160;2023-11-22T09:45:55;97742.41;;;6.17;100.00
13594;BME280;6449;47.666;9.160;2023-11-22T09:50:57;97761.91;;;6.27;100.00
13594;BME280;6449;47.666;9.160;2023-11-22T09:55:56;97756.84;;;6.24;100.00
13594;BME280;6449;47.666;9.160;2023-11-22T10:00:51;97742.34;;;6.19;100.00
13594;BME280;6449;47.666;9.160;2023-11-22T10:05:44;97746.81;;;6.36;100.00
13594;BME280;6449;47.666;9.160;2023-11-22T10:10:42;97757.28;;;6.34;100.00
13594;BME280;6449;47.666;9.160;2023-11-22T10:15:41;97762.50;;;6.53;100.00
13594;BME280;6449;47.666;9.160;2023-11-22T10:20:40;97762.03;;;6.45;100.00
13594;BME280;6449;47.666;9.160;2023-11-22T10:25:35;97770.78;;;6.23;100.00
13594;BME280;6449;47.666;9.160;2023-11-22T10:30:29;97778.03;;;5.96;100.00
13594;BME280;6449;47.666;9.160;2023-11-22T10:40:31;97773.16;;;6.09;100.00
13594;BME280;6449;47.666;9.160;2023-11-22T10:45:29;97772.03;;;6.15;100.00
13594;BME280;6449;47.666;9.160;2023-11-22T10:50:23;97780.94;;;5.89;100.00
13594;BME280;6449;47.666;9.160;2023-11-22T11:00:25;97772.34;;;6.46;100.00
13594;BME280;6449;47.666;9.160;2023-11-22T11:05:29;97769.25;;;6.57;100.00
13594;BME280;6449;47.666;9.160;2023-11-22T11:10:30;97786.22;;;6.47;100.00
13594;BME280;6449;47.666;9.160;2023-11-22T11:15:26;97792.63;;;6.40;100.00
13594;BME280;6449;47.666;9.160;2023-11-22T11:20:23;97795.00;;;6.44;100.00
13594;BME280;6449;47.666;9.160;2023-11-22T11:25:17;97798.03;;;6.54;100.00
13594;BME280;6449;47.666;9.160;2023-11-22T11:35:50;97819.13;;;6.68;100.00
13594;BME280;6449;47.666;9.160;2023-11-22T11:40:47;97825.84;;;6.53;100.00
13594;BME280;6449;47.666;9.160;2023-11-22T11:45:42;97821.16;;;6.62;100.00
13594;BME280;6449;47.666;9.160;2023-11-22T11:50:38;97823.75;;;6.22;100.00
13594;BME280;6449;47.666;9.160;2023-11-22T11:55:33;97811.94;;;5.95;100.00
13594;BME280;6449;47.666;9.160;2023-11-22T12:00:31;97820.75;;;5.91;100.00
13594;BME280;6449;47.666;9.160;2023-11-22T12:05:32;97810.59;;;5.85;100.00
13594;BME280;6449;47.666;9.160;2023-11-22T12:10:26;97793.44;;;6.21;100.00
13594;BME280;6449;47.666;9.160;2023-11-22T12:15:21;97796.84;;;6.23;100.00
13594;BME280;6449;47.666;9.160;2023-11-22T12:20:15;97791.88;;;6.17;100.00
13594;BME280;6449;47.666;9.160;2023-11-22T12:25:11;97793.63;;;6.17;100.00
13594;BME280;6449;47.666;9.160;2023-11-22T12:30:08;97802.22;;;6.19;100.00
13594;BME280;6449;47.666;9.160;2023-11-22T12:35:06;97809.06;;;6.21;100.00
13594;BME280;6449;47.666;9.160;2023-11-22T12:40:09;97831.59;;;6.02;100.00
13594;BME280;6449;47.666;9.160;2023-11-22T12:45:05;97839.16;;;6.08;100.00
13594;BME280;6449;47.666;9.160;2023-11-22T12:50:04;97845.59;;;5.77;100.00
13594;BME280;6449;47.666;9.160;2023-11-22T12:54:59;97852.09;;;5.67;100.00
13594;BME280;6449;47.666;9.160;2023-11-22T12:59:52;97857.44;;;5.85;100.00
13594;BME280;6449;47.666;9.160;2023-11-22T13:04:46;97861.53;;;5.90;100.00
13594;BME280;6449;47.666;9.160;2023-11-22T13:09:41;97876.09;;;5.52;100.00
13594;BME280;6449;47.666;9.160;2023-11-22T13:14:35;97891.03;;;5.47;100.00
13594;BME280;6449;47.666;9.160;2023-11-22T13:19:30;97877.75;;;5.55;100.00
13594;BME280;6449;47.666;9.160;2023-11-22T13:24:56;97885.66;;;5.51;100.00
13594;BME280;6449;47.666;9.160;2023-11-22T13:30:00;97883.84;;;5.53;100.00
13594;BME280;6449;47.666;9.160;2023-11-22T13:35:27;97879.38;;;5.57;100.00
13594;BME280;6449;47.666;9.160;2023-11-22T13:40:49;97885.47;;;5.78;100.00
13594;BME280;6449;47.666;9.160;2023-11-22T13:46:10;97886.66;;;5.49;100.00
13594;BME280;6449;47.666;9.160;2023-11-22T13:51:05;97883.38;;;5.44;100.00
13594;BME280;6449;47.666;9.160;2023-11-22T13:56:20;97895.19;;;5.07;100.00
13594;BME280;6449;47.666;9.160;2023-11-22T14:01:19;97913.38;;;5.07;100.00
13594;BME280;6449;47.666;9.160;2023-11-22T14:06:35;97922.91;;;5.30;100.00
13594;BME280;6449;47.666;9.160;2023-11-22T14:11:36;97935.72;;;5.35;100.00
13594;BME280;6449;47.666;9.160;2023-11-22T14:23:14;97937.19;;;5.42;100.00
13594;BME280;6449;47.666;9.160;2023-11-22T14:28:23;97929.81;;;5.75;100.00
13594;BME280;6449;47.666;9.160;2023-11-22T14:33:53;97941.72;;;5.59;100.00
13594;BME280;6449;47.666;9.160;2023-11-22T14:40:23;97953.63;;;5.42;100.00
13594;BME280;6449;47.666;9.160;2023-11-22T14:45:16;97967.31;;;5.47;100.00
13594;BME280;6449;47.666;9.160;2023-11-22T14:50:12;97964.78;;;5.68;100.00
13594;BME280;6449;47.666;9.160;2023-11-22T14:55:08;97964.00;;;5.44;100.00
13594;BME280;6449;47.666;9.160;2023-11-22T15:00:06;97992.72;;;5.17;100.00
13594;BME280;6449;47.666;9.160;2023-11-22T15:05:03;98010.44;;;5.06;100.00
13594;BME280;6449;47.666;9.160;2023-11-22T15:10:03;98016.50;;;5.30;100.00
13594;BME280;6449;47.666;9.160;2023-11-22T15:14:57;98011.97;;;5.35;100.00
13594;BME280;6449;47.666;9.160;2023-11-22T15:19:52;98011.50;;;5.47;100.00
13594;BME280;6449;47.666;9.160;2023-11-22T15:24:46;98004.59;;;5.70;100.00
13594;BME280;6449;47.666;9.160;2023-11-22T15:29:39;98000.41;;;5.44;100.00
13594;BME280;6449;47.666;9.160;2023-11-22T15:34:32;98007.38;;;5.65;100.00
13594;BME280;6449;47.666;9.160;2023-11-22T15:39:27;97998.34;;;5.52;100.00
13594;BME280;6449;47.666;9.160;2023-11-22T15:44:21;97983.19;;;5.16;100.00
13594;BME280;6449;47.666;9.160;2023-11-22T15:49:14;97984.06;;;5.40;100.00
13594;BME280;6449;47.666;9.160;2023-11-22T15:54:08;97967.72;;;5.37;100.00
13594;BME280;6449;47.666;9.160;2023-11-22T15:59:04;97956.44;;;5.60;100.00
13594;BME280;6449;47.666;9.160;2023-11-22T16:03:57;97963.75;;;5.72;100.00
13594;BME280;6449;47.666;9.160;2023-11-22T16:08:51;97967.13;;;5.52;100.00
13594;BME280;6449;47.666;9.160;2023-11-22T16:13:44;97978.19;;;5.35;100.00
13594;BME280;6449;47.666;9.160;2023-11-22T16:18:39;98010.44;;;5.30;100.00
13594;BME280;6449;47.666;9.160;2023-11-22T16:23:33;98014.38;;;5.16;100.00
13594;BME280;6449;47.666;9.160;2023-11-22T16:28:27;98014.44;;;4.66;100.00
13594;BME280;6449;47.666;9.160;2023-11-22T16:33:22;98028.66;;;4.81;100.00
13594;BME280;6449;47.666;9.160;2023-11-22T16:38:17;98038.22;;;4.79;100.00
13594;BME280;6449;47.666;9.160;2023-11-22T16:43:10;98047.41;;;5.14;100.00
13594;BME280;6449;47.666;9.160;2023-11-22T16:48:04;98040.81;;;5.29;100.00
13594;BME280;6449;47.666;9.160;2023-11-22T16:52:58;98031.16;;;5.33;100.00
13594;BME280;6449;47.666;9.160;2023-11-22T16:57:52;98018.91;;;5.58;100.00
13594;BME280;6449;47.666;9.160;2023-11-22T17:02:47;98026.81;;;5.32;100.00
13594;BME280;6449;47.666;9.160;2023-11-22T17:07:41;98043.06;;;5.38;100.00
13594;BME280;6449;47.666;9.160;2023-11-22T17:12:35;98049.97;;;5.39;100.00
13594;BME280;6449;47.666;9.160;2023-11-22T17:17:30;98062.13;;;5.39;100.00
13594;BME280;6449;47.666;9.160;2023-11-22T17:22:25;98060.53;;;5.35;100.00
13594;BME280;6449;47.666;9.160;2023-11-22T17:27:25;98067.56;;;5.33;100.00
13594;BME280;6449;47.666;9.160;2023-11-22T17:32:21;98067.31;;;5.39;100.00
13594;BME280;6449;47.666;9.160;2023-11-22T17:37:19;98074.00;;;5.46;100.00
13594;BME280;6449;47.666;9.160;2023-11-22T17:42:16;98075.69;;;5.47;100.00
13594;BME280;6449;47.666;9.160;2023-11-22T17:53:54;98074.22;;;5.40;100.00
13594;BME280;6449;47.666;9.160;2023-11-22T18:06:05;98090.50;;;5.45;100.00
13594;BME280;6449;47.666;9.160;2023-11-22T18:11:50;98091.63;;;5.13;100.00
13594;BME280;6449;47.666;9.160;2023-11-22T18:17:40;98094.88;;;5.19;100.00
13594;BME280;6449;47.666;9.160;2023-11-22T18:35:38;98122.06;;;5.09;100.00
13594;BME280;6449;47.666;9.160;2023-11-22T18:41:19;98127.06;;;4.90;100.00
13594;BME280;6449;47.666;9.160;2023-11-22T18:47:03;98117.91;;;4.79;100.00
13594;BME280;6449;47.666;9.160;2023-11-22T18:52:14;98129.34;;;4.99;100.00
13594;BME280;6449;47.666;9.160;2023-11-22T18:57:17;98128.13;;;5.10;100.00
13594;BME280;6449;47.666;9.160;2023-11-22T19:02:13;98129.34;;;4.99;100.00
13594;BME280;6449;47.666;9.160;2023-11-22T19:07:13;98123.19;;;5.02;100.00
13594;BME280;6449;47.666;9.160;2023-11-22T19:12:24;98131.72;;;5.06;100.00
13594;BME280;6449;47.666;9.160;2023-11-22T19:18:22;98123.78;;;5.10;100.00
13594;BME280;6449;47.666;9.160;2023-11-22T19:24:13;98135.72;;;5.16;100.00
13594;BME280;6449;47.666;9.160;2023-11-22T19:29:07;98142.66;;;5.15;100.00
13594;BME280;6449;47.666;9.160;2023-11-22T19:34:14;98149.53;;;5.16;100.00
13594;BME280;6449;47.666;9.160;2023-11-22T19:39:30;98151.78;;;5.27;100.00
13594;BME280;6449;47.666;9.160;2023-11-22T19:44:26;98154.34;;;5.29;100.00
13594;BME280;6449;47.666;9.160;2023-11-22T19:49:26;98147.63;;;5.21;100.00
13594;BME280;6449;47.666;9.160;2023-11-22T19:54:30;98144.03;;;5.25;100.00
13594;BME280;6449;47.666;9.160;2023-11-22T19:59:32;98146.78;;;5.21;100.00
13594;BME280;6449;47.666;9.160;2023-11-22T20:04:29;98156.06;;;4.77;100.00
13594;BME280;6449;47.666;9.160;2023-11-22T20:09:25;98151.50;;;4.85;100.00
13594;BME280;6449;47.666;9.160;2023-11-22T20:14:20;98145.94;;;4.95;100.00
13594;BME280;6449;47.666;9.160;2023-11-22T20:19:22;98144.72;;;5.06;100.00
13594;BME280;6449;47.666;9.160;2023-11-22T20:24:25;98149.06;;;5.05;100.00
13594;BME280;6449;47.666;9.160;2023-11-22T20:29:25;98136.75;;;5.10;100.00
13594;BME280;6449;47.666;9.160;2023-11-22T20:34:26;98128.06;;;5.11;100.00
13594;BME280;6449;47.666;9.160;2023-11-22T20:39:20;98107.81;;;5.21;100.00
13594;BME280;6449;47.666;9.160;2023-11-22T20:44:17;98106.06;;;5.21;100.00
13594;BME280;6449;47.666;9.160;2023-11-22T20:49:21;98115.03;;;5.13;100.00
13594;BME280;6449;47.666;9.160;2023-11-22T20:54:18;98103.66;;;5.15;100.00
13594;BME280;6449;47.666;9.160;2023-11-22T20:59:18;98097.53;;;5.18;100.00
13594;BME280;6449;47.666;9.160;2023-11-22T21:04:13;98093.28;;;5.15;100.00
13594;BME280;6449;47.666;9.160;2023-11-22T21:09:09;98077.66;;;5.17;100.00
13594;BME280;6449;47.666;9.160;2023-11-22T21:14:07;98084.56;;;5.16;100.00
13594;BME280;6449;47.666;9.160;2023-11-22T21:19:01;98114.50;;;5.03;100.00
13594;BME280;6449;47.666;9.160;2023-11-22T21:24:00;98106.59;;;5.06;100.00
13594;BME280;6449;47.666;9.160;2023-11-22T21:28:59;98088.97;;;5.14;100.00
13594;BME280;6449;47.666;9.160;2023-11-22T21:33:58;98082.88;;;5.15;100.00
13594;BME280;6449;47.666;9.160;2023-11-22T21:38:54;98092.59;;;5.10;100.00
13594;BME280;6449;47.666;9.160;2023-11-22T21:43:49;98078.19;;;5.00;100.00
13594;BME280;6449;47.666;9.160;2023-11-22T21:48:51;98082.69;;;4.96;100.00
13594;BME280;6449;47.666;9.160;2023-11-22T21:53:44;98074.28;;;5.13;100.00
13594;BME280;6449;47.666;9.160;2023-11-22T21:58:40;98077.84;;;5.11;100.00
13594;BME280;6449;47.666;9.160;2023-11-22T22:03:40;98077.06;;;5.09;100.00
13594;BME280;6449;47.666;9.160;2023-11-22T22:08:36;98085.47;;;5.15;100.00
13594;BME280;6449;47.666;9.160;2023-11-22T22:13:29;98090.78;;;5.12;100.00
13594;BME280;6449;47.666;9.160;2023-11-22T22:18:29;98093.06;;;4.96;100.00
13594;BME280;6449;47.666;9.160;2023-11-22T22:23:22;98079.75;;;5.06;100.00
13594;BME280;6449;47.666;9.160;2023-11-22T22:28:17;98084.00;;;5.08;100.00
13594;BME280;6449;47.666;9.160;2023-11-22T22:33:11;98094.47;;;5.07;100.00
13594;BME280;6449;47.666;9.160;2023-11-22T22:38:05;98090.88;;;5.09;100.00
13594;BME280;6449;47.666;9.160;2023-11-22T22:42:59;98105.25;;;4.94;100.00
13594;BME280;6449;47.666;9.160;2023-11-22T22:47:56;98116.53;;;4.93;100.00
13594;BME280;6449;47.666;9.160;2023-11-22T22:52:50;98107.28;;;4.86;100.00
13594;BME280;6449;47.666;9.160;2023-11-22T22:57:43;98112.31;;;4.91;100.00
13594;BME280;6449;47.666;9.160;2023-11-22T23:02:37;98098.81;;;5.06;100.00
13594;BME280;6449;47.666;9.160;2023-11-22T23:07:32;98083.00;;;5.12;100.00
13594;BME280;6449;47.666;9.160;2023-11-22T23:12:25;98067.34;;;5.14;100.00
13594;BME280;6449;47.666;9.160;2023-11-22T23:17:19;98058.91;;;5.07;100.00
13594;BME280;6449;47.666;9.160;2023-11-22T23:22:13;98064.34;;;5.01;100.00
13594;BME280;6449;47.666;9.160;2023-11-22T23:27:07;98061.19;;;4.91;100.00
13594;BME280;6449;47.666;9.160;2023-11-22T23:32:01;98063.75;;;4.93;100.00
13594;BME280;6449;47.666;9.160;2023-11-22T23:36:55;98042.38;;;4.85;100.00
13594;BME280;6449;47.666;9.160;2023-11-22T23:41:48;98028.69;;;4.80;100.00
13594;BME280;6449;47.666;9.160;2023-11-22T23:46:43;98037.53;;;4.49;100.00
13594;BME280;6449;47.666;9.160;2023-11-22T23:51:37;98036.72;;;4.47;100.00
13594;BME280;6449;47.666;9.160;2023-11-22T23:56:34;98041.44;;;4.61;100.00
